sensor_id;sensor_type;location;lat;lon;timestamp;pressure;altitude;pressure_sealevel;temperature
66604;BMP280;53460;39.612;8.822;2023-12-20T00:00:57;98888.78;;;7.86
66604;BMP280;53460;39.612;8.822;2023-12-20T00:03:23;98904.28;;;7.92
66604;BMP280;53460;39.612;8.822;2023-12-20T00:05:50;98907.63;;;7.92
66604;BMP280;53460;39.612;8.822;2023-12-20T00:08:16;98921.88;;;7.99
66604;BMP280;53460;39.612;8.822;2023-12-20T00:10:43;98941.25;;;8.02
66604;BMP280;53460;39.612;8.822;2023-12-20T00:13:09;98952.25;;;7.96
66604;BMP280;53460;39.612;8.822;2023-12-20T00:15:35;98946.06;;;7.91
66604;BMP280;53460;39.612;8.822;2023-12-20T00:18:01;98957.38;;;7.92
66604;BMP280;53460;39.612;8.822;2023-12-20T00:20:27;98971.66;;;7.85
66604;BMP280;53460;39.612;8.822;2023-12-20T00:22:55;98967.63;;;7.84
66604;BMP280;53460;39.612;8.822;2023-12-20T00:25:21;98978.06;;;7.80
66604;BMP280;53460;39.612;8.822;2023-12-20T00:27:47;98990.63;;;7.79
66604;BMP280;53460;39.612;8.822;2023-12-20T00:30:13;98992.88;;;7.85
66604;BMP280;53460;39.612;8.822;2023-12-20T00:32:38;98987.41;;;7.53
66604;BMP280;53460;39.612;8.822;2023-12-20T00:35:04;99001.19;;;7.63
66604;BMP280;53460;39.612;8.822;2023-12-20T00:37:30;99009.41;;;7.70
66604;BMP280;53460;39.612;8.822;2023-12-20T00:39:56;99027.00;;;7.77
66604;BMP280;53460;39.612;8.822;2023-12-20T00:42:21;99034.97;;;7.77
66604;BMP280;53460;39.612;8.822;2023-12-20T00:44:47;99042.72;;;7.73
66604;BMP280;53460;39.612;8.822;2023-12-20T00:47:12;99054.34;;;7.79
66604;BMP280;53460;39.612;8.822;2023-12-20T00:49:38;99042.53;;;7.69
66604;BMP280;53460;39.612;8.822;2023-12-20T00:52:04;99018.47;;;7.64
66604;BMP280;53460;39.612;8.822;2023-12-20T00:54:30;99056.69;;;7.73
66604;BMP280;53460;39.612;8.822;2023-12-20T00:56:56;99104.47;;;7.87
66604;BMP280;53460;39.612;8.822;2023-12-20T00:59:21;99115.66;;;7.85
66604;BMP280;53460;39.612;8.822;2023-12-20T01:01:47;99120.19;;;7.97
66604;BMP280;53460;39.612;8.822;2023-12-20T01:04:13;99112.41;;;7.87
66604;BMP280;53460;39.612;8.822;2023-12-20T01:06:39;99115.88;;;7.89
66604;BMP280;53460;39.612;8.822;2023-12-20T01:09:04;99108.66;;;7.92
66604;BMP280;53460;39.612;8.822;2023-12-20T01:11:30;99113.41;;;7.80
66604;BMP280;53460;39.612;8.822;2023-12-20T01:13:56;99142.34;;;8.01
66604;BMP280;53460;39.612;8.822;2023-12-20T01:16:21;99132.66;;;7.94
66604;BMP280;53460;39.612;8.822;2023-12-20T01:18:47;99141.22;;;7.92
66604;BMP280;53460;39.612;8.822;2023-12-20T01:21:12;99181.47;;;8.01
66604;BMP280;53460;39.612;8.822;2023-12-20T01:23:38;99206.31;;;7.80
66604;BMP280;53460;39.612;8.822;2023-12-20T01:26:04;99292.03;;;7.82
66604;BMP280;53460;39.612;8.822;2023-12-20T01:28:30;99400.28;;;7.72
66604;BMP280;53460;39.612;8.822;2023-12-20T01:30:57;99522.16;;;7.80
66604;BMP280;53460;39.612;8.822;2023-12-20T01:33:22;99606.28;;;7.89
66604;BMP280;53460;39.612;8.822;2023-12-20T01:35:48;99716.28;;;7.86
66604;BMP280;53460;39.612;8.822;2023-12-20T01:38:14;99758.19;;;7.54
66604;BMP280;53460;39.612;8.822;2023-12-20T01:40:40;99876.00;;;7.82
66604;BMP280;53460;39.612;8.822;2023-12-20T01:43:09;99972.69;;;7.89
66604;BMP280;53460;39.612;8.822;2023-12-20T01:45:35;100028.94;;;7.97
66604;BMP280;53460;39.612;8.822;2023-12-20T01:48:01;100073.41;;;7.97
66604;BMP280;53460;39.612;8.822;2023-12-20T01:50:28;100090.31;;;8.01
66604;BMP280;53460;39.612;8.822;2023-12-20T01:53:00;100097.94;;;8.07
66604;BMP280;53460;39.612;8.822;2023-12-20T01:55:28;100112.31;;;8.13
66604;BMP280;53460;39.612;8.822;2023-12-20T01:57:55;100110.38;;;8.04
66604;BMP280;53460;39.612;8.822;2023-12-20T02:00:22;100094.50;;;7.94
66604;BMP280;53460;39.612;8.822;2023-12-20T02:02:50;100070.50;;;7.83
66604;BMP280;53460;39.612;8.822;2023-12-20T02:05:16;100053.63;;;7.78
66604;BMP280;53460;39.612;8.822;2023-12-20T02:07:43;100050.69;;;7.74
66604;BMP280;53460;39.612;8.822;2023-12-20T02:10:08;100046.53;;;7.71
66604;BMP280;53460;39.612;8.822;2023-12-20T02:12:34;100053.34;;;7.74
66604;BMP280;53460;39.612;8.822;2023-12-20T02:14:59;100075.81;;;7.83
66604;BMP280;53460;39.612;8.822;2023-12-20T02:17:25;100093.84;;;7.84
66604;BMP280;53460;39.612;8.822;2023-12-20T02:19:51;100115.09;;;7.84
66604;BMP280;53460;39.612;8.822;2023-12-20T02:22:17;100099.47;;;7.79
66604;BMP280;53460;39.612;8.822;2023-12-20T02:24:43;100097.22;;;7.75
66604;BMP280;53460;39.612;8.822;2023-12-20T02:27:08;100091.25;;;7.65
66604;BMP280;53460;39.612;8.822;2023-12-20T02:29:35;100117.75;;;7.75
66604;BMP280;53460;39.612;8.822;2023-12-20T02:32:01;100119.91;;;7.67
66604;BMP280;53460;39.612;8.822;2023-12-20T02:34:27;100129.94;;;7.68
66604;BMP280;53460;39.612;8.822;2023-12-20T02:36:53;100122.81;;;7.61
66604;BMP280;53460;39.612;8.822;2023-12-20T02:39:19;100129.97;;;7.58
66604;BMP280;53460;39.612;8.822;2023-12-20T02:41:44;100150.38;;;7.56
66604;BMP280;53460;39.612;8.822;2023-12-20T02:44:10;100162.63;;;7.61
66604;BMP280;53460;39.612;8.822;2023-12-20T02:46:36;100228.63;;;8.05
66604;BMP280;53460;39.612;8.822;2023-12-20T02:49:01;100250.50;;;7.75
66604;BMP280;53460;39.612;8.822;2023-12-20T02:51:27;100255.09;;;7.84
66604;BMP280;53460;39.612;8.822;2023-12-20T02:53:52;100256.09;;;7.69
66604;BMP280;53460;39.612;8.822;2023-12-20T02:56:18;100278.44;;;7.85
66604;BMP280;53460;39.612;8.822;2023-12-20T02:58:44;100287.25;;;7.88
66604;BMP280;53460;39.612;8.822;2023-12-20T03:01:09;100301.63;;;7.75
66604;BMP280;53460;39.612;8.822;2023-12-20T03:03:35;100306.53;;;7.79
66604;BMP280;53460;39.612;8.822;2023-12-20T03:06:01;100300.25;;;7.64
66604;BMP280;53460;39.612;8.822;2023-12-20T03:08:26;100287.63;;;7.36
66604;BMP280;53460;39.612;8.822;2023-12-20T03:10:52;100328.69;;;7.35
66604;BMP280;53460;39.612;8.822;2023-12-20T03:13:19;100350.06;;;7.37
66604;BMP280;53460;39.612;8.822;2023-12-20T03:15:45;100352.34;;;7.04
66604;BMP280;53460;39.612;8.822;2023-12-20T03:18:11;100375.97;;;7.19
66604;BMP280;53460;39.612;8.822;2023-12-20T03:20:37;100390.81;;;7.32
66604;BMP280;53460;39.612;8.822;2023-12-20T03:23:03;100400.28;;;7.25
66604;BMP280;53460;39.612;8.822;2023-12-20T03:25:29;100507.81;;;7.26
66604;BMP280;53460;39.612;8.822;2023-12-20T03:27:55;100532.75;;;7.41
66604;BMP280;53460;39.612;8.822;2023-12-20T03:30:21;100607.78;;;7.68
66604;BMP280;53460;39.612;8.822;2023-12-20T03:32:47;100690.72;;;7.59
66604;BMP280;53460;39.612;8.822;2023-12-20T03:35:12;100740.91;;;7.64
66604;BMP280;53460;39.612;8.822;2023-12-20T03:37:38;100854.03;;;7.60
66604;BMP280;53460;39.612;8.822;2023-12-20T03:40:04;101066.16;;;7.73
66604;BMP280;53460;39.612;8.822;2023-12-20T03:42:30;101132.69;;;7.83
66604;BMP280;53460;39.612;8.822;2023-12-20T03:44:56;101190.81;;;7.71
66604;BMP280;53460;39.612;8.822;2023-12-20T03:47:22;101249.78;;;7.77
66604;BMP280;53460;39.612;8.822;2023-12-20T03:49:47;101289.75;;;7.87
66604;BMP280;53460;39.612;8.822;2023-12-20T03:52:13;101300.53;;;7.97
66604;BMP280;53460;39.612;8.822;2023-12-20T03:54:39;101314.50;;;7.97
66604;BMP280;53460;39.612;8.822;2023-12-20T03:57:05;101328.13;;;8.09
66604;BMP280;53460;39.612;8.822;2023-12-20T03:59:34;101350.06;;;8.17
66604;BMP280;53460;39.612;8.822;2023-12-20T04:02:00;101340.50;;;8.14
66604;BMP280;53460;39.612;8.822;2023-12-20T04:04:26;101335.72;;;8.20
66604;BMP280;53460;39.612;8.822;2023-12-20T04:06:51;101336.22;;;8.26
66604;BMP280;53460;39.612;8.822;2023-12-20T04:09:17;101321.84;;;8.29
66604;BMP280;53460;39.612;8.822;2023-12-20T04:11:43;101299.69;;;8.34
66604;BMP280;53460;39.612;8.822;2023-12-20T04:14:08;101294.81;;;8.48
66604;BMP280;53460;39.612;8.822;2023-12-20T04:16:34;101296.03;;;8.54
66604;BMP280;53460;39.612;8.822;2023-12-20T04:19:00;101299.53;;;8.65
66604;BMP280;53460;39.612;8.822;2023-12-20T04:21:26;101305.59;;;8.58
66604;BMP280;53460;39.612;8.822;2023-12-20T04:23:51;101463.03;;;8.48
66604;BMP280;53460;39.612;8.822;2023-12-20T04:26:17;101458.56;;;8.66
66604;BMP280;53460;39.612;8.822;2023-12-20T04:28:43;101450.56;;;8.66
66604;BMP280;53460;39.612;8.822;2023-12-20T04:31:08;101449.91;;;8.58
66604;BMP280;53460;39.612;8.822;2023-12-20T04:33:34;101449.56;;;8.54
66604;BMP280;53460;39.612;8.822;2023-12-20T04:36:00;101442.38;;;8.79
66604;BMP280;53460;39.612;8.822;2023-12-20T04:38:26;101436.84;;;8.85
66604;BMP280;53460;39.612;8.822;2023-12-20T04:40:51;101433.63;;;8.94
66604;BMP280;53460;39.612;8.822;2023-12-20T04:43:17;101437.19;;;8.89
66604;BMP280;53460;39.612;8.822;2023-12-20T04:45:43;101444.78;;;8.45
66604;BMP280;53460;39.612;8.822;2023-12-20T04:48:08;101454.94;;;8.31
66604;BMP280;53460;39.612;8.822;2023-12-20T04:50:34;101468.97;;;8.01
66604;BMP280;53460;39.612;8.822;2023-12-20T04:53:00;101473.72;;;7.87
66604;BMP280;53460;39.612;8.822;2023-12-20T04:55:25;101469.81;;;7.81
66604;BMP280;53460;39.612;8.822;2023-12-20T04:57:51;101473.53;;;7.55
66604;BMP280;53460;39.612;8.822;2023-12-20T05:00:17;101471.44;;;7.69
66604;BMP280;53460;39.612;8.822;2023-12-20T05:02:43;101481.00;;;7.64
66604;BMP280;53460;39.612;8.822;2023-12-20T05:05:08;101474.44;;;7.57
66604;BMP280;53460;39.612;8.822;2023-12-20T05:07:34;101479.38;;;7.61
66604;BMP280;53460;39.612;8.822;2023-12-20T05:10:00;101478.09;;;7.47
66604;BMP280;53460;39.612;8.822;2023-12-20T05:12:26;101476.34;;;7.42
66604;BMP280;53460;39.612;8.822;2023-12-20T05:14:52;101461.09;;;7.34
66604;BMP280;53460;39.612;8.822;2023-12-20T05:17:17;101459.16;;;7.27
66604;BMP280;53460;39.612;8.822;2023-12-20T05:19:43;101460.69;;;7.23
66604;BMP280;53460;39.612;8.822;2023-12-20T05:22:09;101460.50;;;7.13
66604;BMP280;53460;39.612;8.822;2023-12-20T05:24:35;101463.84;;;7.06
66604;BMP280;53460;39.612;8.822;2023-12-20T05:27:01;101463.50;;;7.10
66604;BMP280;53460;39.612;8.822;2023-12-20T05:29:26;101466.00;;;7.08
66604;BMP280;53460;39.612;8.822;2023-12-20T05:31:52;101466.69;;;7.08
66604;BMP280;53460;39.612;8.822;2023-12-20T05:34:17;101465.06;;;7.05
66604;BMP280;53460;39.612;8.822;2023-12-20T05:36:43;101463.13;;;7.13
66604;BMP280;53460;39.612;8.822;2023-12-20T05:39:09;101462.09;;;7.09
66604;BMP280;53460;39.612;8.822;2023-12-20T05:41:34;101452.53;;;7.13
66604;BMP280;53460;39.612;8.822;2023-12-20T05:44:00;101429.03;;;7.17
66604;BMP280;53460;39.612;8.822;2023-12-20T05:46:26;101413.81;;;7.25
66604;BMP280;53460;39.612;8.822;2023-12-20T05:48:51;101405.91;;;7.33
66604;BMP280;53460;39.612;8.822;2023-12-20T05:51:18;101395.31;;;7.33
66604;BMP280;53460;39.612;8.822;2023-12-20T05:53:44;101378.66;;;7.48
66604;BMP280;53460;39.612;8.822;2023-12-20T05:56:10;101400.25;;;7.44
66604;BMP280;53460;39.612;8.822;2023-12-20T05:58:36;101389.78;;;7.31
66604;BMP280;53460;39.612;8.822;2023-12-20T06:01:05;101377.22;;;7.47
66604;BMP280;53460;39.612;8.822;2023-12-20T06:03:30;101368.75;;;7.41
66604;BMP280;53460;39.612;8.822;2023-12-20T06:05:56;101373.19;;;7.46
66604;BMP280;53460;39.612;8.822;2023-12-20T06:08:22;101357.41;;;7.55
66604;BMP280;53460;39.612;8.822;2023-12-20T06:10:48;101357.06;;;7.59
66604;BMP280;53460;39.612;8.822;2023-12-20T06:13:14;101356.53;;;7.68
66604;BMP280;53460;39.612;8.822;2023-12-20T06:15:40;101361.50;;;7.64
66604;BMP280;53460;39.612;8.822;2023-12-20T06:18:06;101370.34;;;7.51
66604;BMP280;53460;39.612;8.822;2023-12-20T06:20:35;101367.31;;;7.62
66604;BMP280;53460;39.612;8.822;2023-12-20T06:23:01;101381.16;;;7.76
66604;BMP280;53460;39.612;8.822;2023-12-20T06:25:27;101387.69;;;7.90
66604;BMP280;53460;39.612;8.822;2023-12-20T06:27:52;101405.03;;;7.53
66604;BMP280;53460;39.612;8.822;2023-12-20T06:30:18;101418.16;;;7.67
66604;BMP280;53460;39.612;8.822;2023-12-20T06:32:44;101455.16;;;7.80
66604;BMP280;53460;39.612;8.822;2023-12-20T06:35:12;101484.19;;;8.08
66604;BMP280;53460;39.612;8.822;2023-12-20T06:37:37;101536.25;;;8.04
66604;BMP280;53460;39.612;8.822;2023-12-20T06:40:09;101554.19;;;8.11
66604;BMP280;53460;39.612;8.822;2023-12-20T06:42:35;101563.56;;;7.89
66604;BMP280;53460;39.612;8.822;2023-12-20T06:45:01;101562.84;;;8.19
66604;BMP280;53460;39.612;8.822;2023-12-20T06:47:27;101556.28;;;8.35
66604;BMP280;53460;39.612;8.822;2023-12-20T06:49:53;101561.44;;;8.41
66604;BMP280;53460;39.612;8.822;2023-12-20T06:52:18;101572.44;;;8.52
66604;BMP280;53460;39.612;8.822;2023-12-20T06:54:44;101615.50;;;8.36
66604;BMP280;53460;39.612;8.822;2023-12-20T06:57:10;101639.59;;;8.30
66604;BMP280;53460;39.612;8.822;2023-12-20T06:59:42;101648.47;;;8.55
66604;BMP280;53460;39.612;8.822;2023-12-20T07:02:08;101671.00;;;8.62
66604;BMP280;53460;39.612;8.822;2023-12-20T07:04:35;101690.16;;;8.83
66604;BMP280;53460;39.612;8.822;2023-12-20T07:07:04;101729.53;;;8.93
66604;BMP280;53460;39.612;8.822;2023-12-20T07:09:29;101772.66;;;8.99
66604;BMP280;53460;39.612;8.822;2023-12-20T07:11:55;101814.38;;;9.27
66604;BMP280;53460;39.612;8.822;2023-12-20T07:14:21;101847.38;;;9.54
66604;BMP280;53460;39.612;8.822;2023-12-20T07:16:47;101907.78;;;9.59
66604;BMP280;53460;39.612;8.822;2023-12-20T07:19:12;101949.13;;;10.06
66604;BMP280;53460;39.612;8.822;2023-12-20T07:21:38;102005.63;;;9.97
66604;BMP280;53460;39.612;8.822;2023-12-20T07:24:04;102076.22;;;10.03
66604;BMP280;53460;39.612;8.822;2023-12-20T07:26:29;102129.56;;;10.34
66604;BMP280;53460;39.612;8.822;2023-12-20T07:28:55;102212.66;;;10.53
66604;BMP280;53460;39.612;8.822;2023-12-20T07:31:21;102282.56;;;10.59
66604;BMP280;53460;39.612;8.822;2023-12-20T07:33:47;102332.28;;;10.85
66604;BMP280;53460;39.612;8.822;2023-12-20T07:36:12;102396.16;;;10.76
66604;BMP280;53460;39.612;8.822;2023-12-20T07:38:38;102422.34;;;10.77
66604;BMP280;53460;39.612;8.822;2023-12-20T07:41:04;102427.56;;;11.13
66604;BMP280;53460;39.612;8.822;2023-12-20T07:43:30;102418.69;;;11.26
66604;BMP280;53460;39.612;8.822;2023-12-20T07:45:55;102402.03;;;10.74
66604;BMP280;53460;39.612;8.822;2023-12-20T07:48:22;102394.81;;;10.46
66604;BMP280;53460;39.612;8.822;2023-12-20T07:50:47;102409.63;;;10.55
66604;BMP280;53460;39.612;8.822;2023-12-20T07:53:13;102409.53;;;10.39
66604;BMP280;53460;39.612;8.822;2023-12-20T07:55:39;102415.09;;;11.00
66604;BMP280;53460;39.612;8.822;2023-12-20T07:58:04;102398.13;;;10.75
66604;BMP280;53460;39.612;8.822;2023-12-20T08:00:30;102409.13;;;10.72
66604;BMP280;53460;39.612;8.822;2023-12-20T08:02:56;102416.78;;;10.67
66604;BMP280;53460;39.612;8.822;2023-12-20T08:05:22;102416.34;;;10.48
66604;BMP280;53460;39.612;8.822;2023-12-20T08:07:47;102398.97;;;10.62
66604;BMP280;53460;39.612;8.822;2023-12-20T08:10:13;102391.22;;;10.95
66604;BMP280;53460;39.612;8.822;2023-12-20T08:12:39;102381.94;;;10.96
66604;BMP280;53460;39.612;8.822;2023-12-20T08:15:05;102369.88;;;11.25
66604;BMP280;53460;39.612;8.822;2023-12-20T08:17:31;102366.66;;;11.04
66604;BMP280;53460;39.612;8.822;2023-12-20T08:19:57;102375.22;;;10.95
66604;BMP280;53460;39.612;8.822;2023-12-20T08:22:22;102368.25;;;11.07
66604;BMP280;53460;39.612;8.822;2023-12-20T08:24:48;102381.38;;;10.75
66604;BMP280;53460;39.612;8.822;2023-12-20T08:27:14;102371.25;;;10.81
66604;BMP280;53460;39.612;8.822;2023-12-20T08:29:40;102364.69;;;11.50
66604;BMP280;53460;39.612;8.822;2023-12-20T08:32:05;102355.53;;;14.10
66604;BMP280;53460;39.612;8.822;2023-12-20T08:34:31;102315.06;;;11.80
66604;BMP280;53460;39.612;8.822;2023-12-20T08:36:57;102310.47;;;11.65
66604;BMP280;53460;39.612;8.822;2023-12-20T08:39:22;102302.22;;;11.86
66604;BMP280;53460;39.612;8.822;2023-12-20T08:41:48;102289.06;;;11.65
66604;BMP280;53460;39.612;8.822;2023-12-20T08:44:13;102268.81;;;12.52
66604;BMP280;53460;39.612;8.822;2023-12-20T08:46:39;101821.19;;;19.03
66604;BMP280;53460;39.612;8.822;2023-12-20T08:49:05;99077.19;;;15.22
66604;BMP280;53460;39.612;8.822;2023-12-20T08:51:31;99123.19;;;17.68
66604;BMP280;53460;39.612;8.822;2023-12-20T08:53:56;96738.72;;;16.48
66604;BMP280;53460;39.612;8.822;2023-12-20T08:56:22;97301.69;;;15.55
66604;BMP280;53460;39.612;8.822;2023-12-20T08:58:47;96541.75;;;21.48
66604;BMP280;53460;39.612;8.822;2023-12-20T09:01:14;96741.53;;;15.62
66604;BMP280;53460;39.612;8.822;2023-12-20T09:03:40;96360.44;;;21.29
66604;BMP280;53460;39.612;8.822;2023-12-20T09:06:06;98913.19;;;23.69
66604;BMP280;53460;39.612;8.822;2023-12-20T09:08:32;99890.09;;;24.64
66604;BMP280;53460;39.612;8.822;2023-12-20T09:10:58;99858.06;;;18.81
66604;BMP280;53460;39.612;8.822;2023-12-20T09:13:24;98670.94;;;19.15
66604;BMP280;53460;39.612;8.822;2023-12-20T09:15:56;99019.66;;;18.74
66604;BMP280;53460;39.612;8.822;2023-12-20T09:18:22;98218.25;;;16.89
66604;BMP280;53460;39.612;8.822;2023-12-20T09:20:48;97811.16;;;23.00
66604;BMP280;53460;39.612;8.822;2023-12-20T09:23:13;100102.94;;;27.48
66604;BMP280;53460;39.612;8.822;2023-12-20T09:25:39;99773.28;;;19.79
66604;BMP280;53460;39.612;8.822;2023-12-20T09:28:05;99204.19;;;19.21
66604;BMP280;53460;39.612;8.822;2023-12-20T09:30:31;100085.69;;;27.87
66604;BMP280;53460;39.612;8.822;2023-12-20T09:32:57;100319.53;;;30.37
66604;BMP280;53460;39.612;8.822;2023-12-20T09:35:23;100334.09;;;29.61
66604;BMP280;53460;39.612;8.822;2023-12-20T09:37:49;100342.56;;;31.14
66604;BMP280;53460;39.612;8.822;2023-12-20T09:40:18;100349.50;;;31.13
66604;BMP280;53460;39.612;8.822;2023-12-20T09:45:20;100302.69;;;30.01
66604;BMP280;53460;39.612;8.822;2023-12-20T09:47:47;100309.25;;;29.63
66604;BMP280;53460;39.612;8.822;2023-12-20T09:50:13;100257.25;;;26.04
66604;BMP280;53460;39.612;8.822;2023-12-20T09:52:39;100272.41;;;30.24
66604;BMP280;53460;39.612;8.822;2023-12-20T09:55:06;100179.78;;;23.08
66604;BMP280;53460;39.612;8.822;2023-12-20T09:57:33;99924.75;;;20.39
66604;BMP280;53460;39.612;8.822;2023-12-20T09:59:59;99752.03;;;19.49
66604;BMP280;53460;39.612;8.822;2023-12-20T10:02:25;99161.69;;;17.04
66604;BMP280;53460;39.612;8.822;2023-12-20T10:04:55;98157.81;;;16.60
66604;BMP280;53460;39.612;8.822;2023-12-20T10:07:21;97505.75;;;16.69
66604;BMP280;53460;39.612;8.822;2023-12-20T10:09:47;97323.34;;;16.72
66604;BMP280;53460;39.612;8.822;2023-12-20T10:12:13;97275.59;;;17.07
66604;BMP280;53460;39.612;8.822;2023-12-20T10:14:39;97415.75;;;17.34
66604;BMP280;53460;39.612;8.822;2023-12-20T10:17:06;97711.38;;;18.57
66604;BMP280;53460;39.612;8.822;2023-12-20T10:19:32;97872.81;;;17.58
66604;BMP280;53460;39.612;8.822;2023-12-20T10:22:04;97732.44;;;19.14
66604;BMP280;53460;39.612;8.822;2023-12-20T10:24:30;99922.72;;;27.78
66604;BMP280;53460;39.612;8.822;2023-12-20T10:29:36;100127.97;;;23.62
66604;BMP280;53460;39.612;8.822;2023-12-20T10:32:24;100091.00;;;24.02
66604;BMP280;53460;39.612;8.822;2023-12-20T10:34:50;100234.47;;;29.81
66604;BMP280;53460;39.612;8.822;2023-12-20T10:37:17;100248.94;;;30.05
66604;BMP280;53460;39.612;8.822;2023-12-20T10:39:42;100246.03;;;29.11
66604;BMP280;53460;39.612;8.822;2023-12-20T10:42:11;100244.69;;;30.53
66604;BMP280;53460;39.612;8.822;2023-12-20T10:44:37;100249.28;;;31.40
66604;BMP280;53460;39.612;8.822;2023-12-20T10:47:04;100234.09;;;29.93
66604;BMP280;53460;39.612;8.822;2023-12-20T10:49:30;100239.00;;;31.19
66604;BMP280;53460;39.612;8.822;2023-12-20T10:51:59;100231.66;;;30.72
66604;BMP280;53460;39.612;8.822;2023-12-20T10:54:25;100141.75;;;27.26
66604;BMP280;53460;39.612;8.822;2023-12-20T10:56:51;100106.78;;;23.87
66604;BMP280;53460;39.612;8.822;2023-12-20T10:59:19;100123.88;;;26.08
66604;BMP280;53460;39.612;8.822;2023-12-20T11:01:48;100124.34;;;27.75
66604;BMP280;53460;39.612;8.822;2023-12-20T11:04:19;99906.34;;;21.49
66604;BMP280;53460;39.612;8.822;2023-12-20T11:06:51;99218.81;;;18.47
66604;BMP280;53460;39.612;8.822;2023-12-20T11:09:26;98421.34;;;17.75
66604;BMP280;53460;39.612;8.822;2023-12-20T11:12:09;97818.66;;;18.58
66604;BMP280;53460;39.612;8.822;2023-12-20T11:14:53;98014.19;;;18.27
66604;BMP280;53460;39.612;8.822;2023-12-20T11:17:21;97913.13;;;19.35
66604;BMP280;53460;39.612;8.822;2023-12-20T11:22:21;98577.63;;;19.89
66604;BMP280;53460;39.612;8.822;2023-12-20T11:24:48;98120.47;;;17.93
66604;BMP280;53460;39.612;8.822;2023-12-20T11:27:14;97990.63;;;17.70
66604;BMP280;53460;39.612;8.822;2023-12-20T11:29:40;97837.41;;;17.33
66604;BMP280;53460;39.612;8.822;2023-12-20T11:32:36;97427.41;;;17.25
66604;BMP280;53460;39.612;8.822;2023-12-20T11:35:17;96911.66;;;17.24
66604;BMP280;53460;39.612;8.822;2023-12-20T11:37:45;97159.78;;;19.10
66604;BMP280;53460;39.612;8.822;2023-12-20T11:40:16;97509.44;;;18.64
66604;BMP280;53460;39.612;8.822;2023-12-20T11:42:49;97626.84;;;18.65
66604;BMP280;53460;39.612;8.822;2023-12-20T11:45:16;97599.81;;;18.36
66604;BMP280;53460;39.612;8.822;2023-12-20T11:47:45;97644.59;;;18.20
66604;BMP280;53460;39.612;8.822;2023-12-20T11:50:11;97517.31;;;17.44
66604;BMP280;53460;39.612;8.822;2023-12-20T11:52:37;97513.28;;;17.80
66604;BMP280;53460;39.612;8.822;2023-12-20T11:55:03;97543.72;;;17.37
66604;BMP280;53460;39.612;8.822;2023-12-20T11:57:30;97502.38;;;18.17
66604;BMP280;53460;39.612;8.822;2023-12-20T11:59:56;97944.91;;;19.34
66604;BMP280;53460;39.612;8.822;2023-12-20T12:02:22;98158.88;;;19.06
66604;BMP280;53460;39.612;8.822;2023-12-20T12:04:49;98096.41;;;18.83
66604;BMP280;53460;39.612;8.822;2023-12-20T12:07:16;97878.94;;;18.47
66604;BMP280;53460;39.612;8.822;2023-12-20T12:09:43;97923.44;;;18.89
66604;BMP280;53460;39.612;8.822;2023-12-20T12:12:09;97945.53;;;18.58
66604;BMP280;53460;39.612;8.822;2023-12-20T12:14:35;97858.41;;;18.21
66604;BMP280;53460;39.612;8.822;2023-12-20T12:17:03;97780.69;;;17.91
66604;BMP280;53460;39.612;8.822;2023-12-20T12:19:29;97571.47;;;16.84
66604;BMP280;53460;39.612;8.822;2023-12-20T12:22:14;97076.69;;;16.62
66604;BMP280;53460;39.612;8.822;2023-12-20T12:24:42;96571.91;;;16.28
66604;BMP280;53460;39.612;8.822;2023-12-20T12:27:08;96203.97;;;15.76
66604;BMP280;53460;39.612;8.822;2023-12-20T12:29:37;96054.97;;;15.75
66604;BMP280;53460;39.612;8.822;2023-12-20T12:32:07;96196.22;;;15.87
66604;BMP280;53460;39.612;8.822;2023-12-20T12:34:34;96434.72;;;15.61
66604;BMP280;53460;39.612;8.822;2023-12-20T12:37:01;96670.91;;;15.67
66604;BMP280;53460;39.612;8.822;2023-12-20T12:39:27;96773.94;;;15.84
66604;BMP280;53460;39.612;8.822;2023-12-20T12:41:53;96859.06;;;15.92
66604;BMP280;53460;39.612;8.822;2023-12-20T12:44:19;96862.50;;;15.89
66604;BMP280;53460;39.612;8.822;2023-12-20T12:46:48;96994.41;;;15.76
66604;BMP280;53460;39.612;8.822;2023-12-20T12:49:16;97125.78;;;15.54
66604;BMP280;53460;39.612;8.822;2023-12-20T12:51:43;97197.94;;;15.76
66604;BMP280;53460;39.612;8.822;2023-12-20T12:54:09;97133.06;;;16.00
66604;BMP280;53460;39.612;8.822;2023-12-20T12:56:36;97080.69;;;15.97
66604;BMP280;53460;39.612;8.822;2023-12-20T12:59:01;96945.59;;;15.99
66604;BMP280;53460;39.612;8.822;2023-12-20T13:01:27;96810.81;;;16.15
66604;BMP280;53460;39.612;8.822;2023-12-20T13:03:53;96673.56;;;15.96
66604;BMP280;53460;39.612;8.822;2023-12-20T13:06:20;96538.88;;;16.31
66604;BMP280;53460;39.612;8.822;2023-12-20T13:08:46;96316.03;;;16.21
66604;BMP280;53460;39.612;8.822;2023-12-20T13:11:11;96268.38;;;15.78
66604;BMP280;53460;39.612;8.822;2023-12-20T13:13:37;96263.94;;;15.91
66604;BMP280;53460;39.612;8.822;2023-12-20T13:16:03;96305.16;;;15.61
66604;BMP280;53460;39.612;8.822;2023-12-20T13:18:29;96287.06;;;15.82
66604;BMP280;53460;39.612;8.822;2023-12-20T13:20:54;96170.03;;;15.87
66604;BMP280;53460;39.612;8.822;2023-12-20T13:23:20;96114.13;;;16.67
66604;BMP280;53460;39.612;8.822;2023-12-20T13:25:46;96009.56;;;17.57
66604;BMP280;53460;39.612;8.822;2023-12-20T13:28:12;96014.66;;;17.95
66604;BMP280;53460;39.612;8.822;2023-12-20T13:30:38;96139.47;;;16.55
66604;BMP280;53460;39.612;8.822;2023-12-20T13:33:04;96115.31;;;15.97
66604;BMP280;53460;39.612;8.822;2023-12-20T13:35:31;96095.84;;;15.57
66604;BMP280;53460;39.612;8.822;2023-12-20T13:37:57;96072.34;;;15.57
66604;BMP280;53460;39.612;8.822;2023-12-20T13:40:23;96080.72;;;15.05
66604;BMP280;53460;39.612;8.822;2023-12-20T13:42:49;96099.00;;;15.22
66604;BMP280;53460;39.612;8.822;2023-12-20T13:45:15;96109.19;;;15.17
66604;BMP280;53460;39.612;8.822;2023-12-20T13:47:41;96133.78;;;15.03
66604;BMP280;53460;39.612;8.822;2023-12-20T13:50:07;96164.28;;;15.14
66604;BMP280;53460;39.612;8.822;2023-12-20T13:52:32;96171.28;;;14.82
66604;BMP280;53460;39.612;8.822;2023-12-20T13:54:58;96214.50;;;14.95
66604;BMP280;53460;39.612;8.822;2023-12-20T13:57:24;96265.31;;;15.01
66604;BMP280;53460;39.612;8.822;2023-12-20T13:59:49;96299.50;;;15.00
66604;BMP280;53460;39.612;8.822;2023-12-20T14:02:18;96326.63;;;14.90
66604;BMP280;53460;39.612;8.822;2023-12-20T14:04:44;96323.63;;;14.75
66604;BMP280;53460;39.612;8.822;2023-12-20T14:07:10;96349.72;;;14.79
66604;BMP280;53460;39.612;8.822;2023-12-20T14:09:36;96342.41;;;14.75
66604;BMP280;53460;39.612;8.822;2023-12-20T14:12:02;96381.78;;;14.83